sensor_id;sensor_type;location;lat;lon;timestamp;pressure;altitude;pressure_sealevel;temperature;humidity
77881;BME280;67077;50.298;18.996;2023-08-30T00:01:31;96940.12;;;15.83;100.00
77881;BME280;67077;50.298;18.996;2023-08-30T00:03:59;96935.95;;;15.79;100.00
77881;BME280;67077;50.298;18.996;2023-08-30T00:06:27;96935.40;;;15.77;100.00
77881;BME280;67077;50.298;18.996;2023-08-30T00:08:55;96936.00;;;15.76;100.00
77881;BME280;67077;50.298;18.996;2023-08-30T00:11:24;96931.27;;;15.76;100.00
77881;BME280;67077;50.298;18.996;2023-08-30T00:13:53;96918.30;;;15.76;100.00
77881;BME280;67077;50.298;18.996;2023-08-30T00:16:21;96907.14;;;15.75;100.00
77881;BME280;67077;50.298;18.996;2023-08-30T00:18:48;96897.83;;;15.74;100.00
77881;BME280;67077;50.298;18.996;2023-08-30T00:21:16;96892.77;;;15.73;100.00
77881;BME280;67077;50.298;18.996;2023-08-30T00:23:44;96892.27;;;15.72;100.00
77881;BME280;67077;50.298;18.996;2023-08-30T00:26:12;96894.02;;;15.72;100.00
77881;BME280;67077;50.298;18.996;2023-08-30T00:28:40;96895.77;;;15.73;100.00
77881;BME280;67077;50.298;18.996;2023-08-30T00:31:08;96898.11;;;15.73;100.00
77881;BME280;67077;50.298;18.996;2023-08-30T00:33:36;96896.85;;;15.73;100.00
77881;BME280;67077;50.298;18.996;2023-08-30T00:36:04;96901.98;;;15.71;100.00
77881;BME280;67077;50.298;18.996;2023-08-30T00:38:33;96904.02;;;15.70;100.00
77881;BME280;67077;50.298;18.996;2023-08-30T00:41:01;96899.48;;;15.69;100.00
77881;BME280;67077;50.298;18.996;2023-08-30T00:43:29;96896.77;;;15.69;100.00
77881;BME280;67077;50.298;18.996;2023-08-30T00:45:57;96888.61;;;15.68;100.00
77881;BME280;67077;50.298;18.996;2023-08-30T00:48:25;96888.11;;;15.68;100.00
77881;BME280;67077;50.298;18.996;2023-08-30T00:50:53;96884.90;;;15.68;100.00
77881;BME280;67077;50.298;18.996;2023-08-30T00:53:21;96889.27;;;15.67;100.00
77881;BME280;67077;50.298;18.996;2023-08-30T00:55:49;96892.92;;;15.67;100.00
77881;BME280;67077;50.298;18.996;2023-08-30T00:58:17;96888.08;;;15.66;100.00
77881;BME280;67077;50.298;18.996;2023-08-30T01:00:45;96884.04;;;15.66;100.00
77881;BME280;67077;50.298;18.996;2023-08-30T01:03:14;96882.03;;;15.66;100.00
77881;BME280;67077;50.298;18.996;2023-08-30T01:05:43;96882.03;;;15.66;100.00
77881;BME280;67077;50.298;18.996;2023-08-30T01:08:11;96886.67;;;15.63;100.00
77881;BME280;67077;50.298;18.996;2023-08-30T01:13:33;96886.50;;;15.57;100.00
77881;BME280;67077;50.298;18.996;2023-08-30T01:16:05;96887.17;;;15.54;100.00
77881;BME280;67077;50.298;18.996;2023-08-30T01:18:35;96884.91;;;15.51;100.00
77881;BME280;67077;50.298;18.996;2023-08-30T01:21:05;96887.75;;;15.50;100.00
77881;BME280;67077;50.298;18.996;2023-08-30T01:23:40;96885.57;;;15.47;100.00
77881;BME280;67077;50.298;18.996;2023-08-30T01:28:44;96881.77;;;15.42;100.00
77881;BME280;67077;50.298;18.996;2023-08-30T01:31:12;96881.89;;;15.41;100.00
77881;BME280;67077;50.298;18.996;2023-08-30T01:33:42;96882.22;;;15.40;100.00
77881;BME280;67077;50.298;18.996;2023-08-30T01:36:10;96880.59;;;15.40;100.00
77881;BME280;67077;50.298;18.996;2023-08-30T01:38:39;96884.88;;;15.42;100.00
77881;BME280;67077;50.298;18.996;2023-08-30T01:41:07;96886.20;;;15.40;100.00
77881;BME280;67077;50.298;18.996;2023-08-30T01:43:36;96891.53;;;15.40;100.00
77881;BME280;67077;50.298;18.996;2023-08-30T01:46:05;96891.65;;;15.39;100.00
77881;BME280;67077;50.298;18.996;2023-08-30T01:48:35;96892.30;;;15.40;100.00
77881;BME280;67077;50.298;18.996;2023-08-30T01:51:03;96885.92;;;15.42;100.00
77881;BME280;67077;50.298;18.996;2023-08-30T01:53:31;96879.05;;;15.43;100.00
77881;BME280;67077;50.298;18.996;2023-08-30T01:56:00;96877.69;;;15.43;100.00
77881;BME280;67077;50.298;18.996;2023-08-30T01:58:28;96869.57;;;15.43;100.00
77881;BME280;67077;50.298;18.996;2023-08-30T02:00:56;96869.95;;;15.42;100.00
77881;BME280;67077;50.298;18.996;2023-08-30T02:03:24;96875.41;;;15.41;100.00
77881;BME280;67077;50.298;18.996;2023-08-30T02:06:00;96879.34;;;15.40;100.00
77881;BME280;67077;50.298;18.996;2023-08-30T02:08:37;96884.08;;;15.40;100.00
77881;BME280;67077;50.298;18.996;2023-08-30T02:11:09;96885.76;;;15.41;100.00
77881;BME280;67077;50.298;18.996;2023-08-30T02:13:39;96886.80;;;15.40;100.00
77881;BME280;67077;50.298;18.996;2023-08-30T02:16:09;96889.41;;;15.40;100.00
77881;BME280;67077;50.298;18.996;2023-08-30T02:18:38;96887.58;;;15.38;100.00
77881;BME280;67077;50.298;18.996;2023-08-30T02:21:06;96888.62;;;15.36;100.00
77881;BME280;67077;50.298;18.996;2023-08-30T02:23:34;96887.97;;;15.36;100.00
77881;BME280;67077;50.298;18.996;2023-08-30T02:26:02;96890.47;;;15.36;100.00
77881;BME280;67077;50.298;18.996;2023-08-30T02:28:30;96891.61;;;15.37;100.00
77881;BME280;67077;50.298;18.996;2023-08-30T02:30:58;96891.23;;;15.37;100.00
77881;BME280;67077;50.298;18.996;2023-08-30T02:33:26;96885.17;;;15.38;100.00
77881;BME280;67077;50.298;18.996;2023-08-30T02:35:54;96888.73;;;15.37;100.00
77881;BME280;67077;50.298;18.996;2023-08-30T02:38:22;96887.74;;;15.37;100.00
77881;BME280;67077;50.298;18.996;2023-08-30T02:40:50;96884.91;;;15.38;100.00
77881;BME280;67077;50.298;18.996;2023-08-30T02:43:18;96876.93;;;15.41;100.00
77881;BME280;67077;50.298;18.996;2023-08-30T02:45:46;96871.58;;;15.45;100.00
77881;BME280;67077;50.298;18.996;2023-08-30T02:48:14;96866.73;;;15.45;100.00
77881;BME280;67077;50.298;18.996;2023-08-30T02:50:42;96872.87;;;15.45;100.00
77881;BME280;67077;50.298;18.996;2023-08-30T02:53:10;96873.10;;;15.44;100.00
77881;BME280;67077;50.298;18.996;2023-08-30T02:55:38;96871.10;;;15.42;100.00
77881;BME280;67077;50.298;18.996;2023-08-30T02:58:06;96872.58;;;15.39;100.00
77881;BME280;67077;50.298;18.996;2023-08-30T03:00:34;96876.27;;;15.35;100.00
77881;BME280;67077;50.298;18.996;2023-08-30T03:03:02;96877.16;;;15.32;100.00
77881;BME280;67077;50.298;18.996;2023-08-30T03:05:30;96873.39;;;15.30;100.00
77881;BME280;67077;50.298;18.996;2023-08-30T03:07:58;96862.12;;;15.29;100.00
77881;BME280;67077;50.298;18.996;2023-08-30T03:10:26;96863.27;;;15.27;100.00
77881;BME280;67077;50.298;18.996;2023-08-30T03:12:54;96866.40;;;15.22;100.00
77881;BME280;67077;50.298;18.996;2023-08-30T03:15:22;96862.18;;;15.19;100.00
77881;BME280;67077;50.298;18.996;2023-08-30T03:17:50;96860.99;;;15.18;100.00
77881;BME280;67077;50.298;18.996;2023-08-30T03:20:18;96865.23;;;15.17;100.00
77881;BME280;67077;50.298;18.996;2023-08-30T03:22:46;96867.13;;;15.17;100.00
77881;BME280;67077;50.298;18.996;2023-08-30T03:25:14;96862.99;;;15.15;100.00
77881;BME280;67077;50.298;18.996;2023-08-30T03:27:44;96860.51;;;15.12;100.00
77881;BME280;67077;50.298;18.996;2023-08-30T03:30:12;96865.89;;;15.11;100.00
77881;BME280;67077;50.298;18.996;2023-08-30T03:32:40;96869.91;;;15.12;100.00
77881;BME280;67077;50.298;18.996;2023-08-30T03:35:08;96876.98;;;15.14;100.00
77881;BME280;67077;50.298;18.996;2023-08-30T03:37:36;96881.11;;;15.16;100.00
77881;BME280;67077;50.298;18.996;2023-08-30T03:40:04;96881.13;;;15.19;100.00
77881;BME280;67077;50.298;18.996;2023-08-30T03:42:33;96878.16;;;15.22;100.00
77881;BME280;67077;50.298;18.996;2023-08-30T03:45:02;96877.58;;;15.20;100.00
77881;BME280;67077;50.298;18.996;2023-08-30T03:47:30;96874.38;;;15.20;100.00
77881;BME280;67077;50.298;18.996;2023-08-30T03:49:58;96874.48;;;15.20;100.00
77881;BME280;67077;50.298;18.996;2023-08-30T03:52:26;96880.96;;;15.19;100.00
77881;BME280;67077;50.298;18.996;2023-08-30T03:54:54;96884.39;;;15.21;100.00
77881;BME280;67077;50.298;18.996;2023-08-30T03:57:22;96883.63;;;15.21;100.00
77881;BME280;67077;50.298;18.996;2023-08-30T03:59:50;96881.92;;;15.21;100.00
77881;BME280;67077;50.298;18.996;2023-08-30T04:02:18;96883.51;;;15.21;100.00
77881;BME280;67077;50.298;18.996;2023-08-30T04:04:49;96895.59;;;15.23;100.00
77881;BME280;67077;50.298;18.996;2023-08-30T04:07:17;96895.05;;;15.23;100.00
77881;BME280;67077;50.298;18.996;2023-08-30T04:09:45;96896.95;;;15.21;100.00
77881;BME280;67077;50.298;18.996;2023-08-30T04:12:12;96896.75;;;15.20;100.00
77881;BME280;67077;50.298;18.996;2023-08-30T04:14:40;96896.42;;;15.20;100.00
77881;BME280;67077;50.298;18.996;2023-08-30T04:17:08;96891.42;;;15.18;100.00
77881;BME280;67077;50.298;18.996;2023-08-30T04:19:36;96887.65;;;15.16;100.00
77881;BME280;67077;50.298;18.996;2023-08-30T04:22:04;96885.98;;;15.14;100.00
77881;BME280;67077;50.298;18.996;2023-08-30T04:24:32;96883.41;;;15.12;100.00
77881;BME280;67077;50.298;18.996;2023-08-30T04:27:00;96880.64;;;15.12;100.00
77881;BME280;67077;50.298;18.996;2023-08-30T04:29:28;96879.60;;;15.13;100.00
77881;BME280;67077;50.298;18.996;2023-08-30T04:31:56;96880.80;;;15.14;100.00
77881;BME280;67077;50.298;18.996;2023-08-30T04:34:24;96878.08;;;15.16;100.00
77881;BME280;67077;50.298;18.996;2023-08-30T04:36:52;96875.25;;;15.19;100.00
77881;BME280;67077;50.298;18.996;2023-08-30T04:39:19;96875.98;;;15.22;100.00
77881;BME280;67077;50.298;18.996;2023-08-30T04:41:47;96879.56;;;15.25;100.00
77881;BME280;67077;50.298;18.996;2023-08-30T04:44:15;96886.20;;;15.26;100.00
77881;BME280;67077;50.298;18.996;2023-08-30T04:46:45;96888.64;;;15.27;100.00
77881;BME280;67077;50.298;18.996;2023-08-30T04:49:12;96889.80;;;15.24;100.00
77881;BME280;67077;50.298;18.996;2023-08-30T04:51:40;96896.79;;;15.23;100.00
77881;BME280;67077;50.298;18.996;2023-08-30T04:54:08;96894.27;;;15.23;100.00
77881;BME280;67077;50.298;18.996;2023-08-30T04:56:36;96894.61;;;15.22;100.00
77881;BME280;67077;50.298;18.996;2023-08-30T04:59:04;96892.86;;;15.24;100.00
77881;BME280;67077;50.298;18.996;2023-08-30T05:01:32;96885.45;;;15.24;100.00
77881;BME280;67077;50.298;18.996;2023-08-30T05:04:00;96882.34;;;15.26;100.00
77881;BME280;67077;50.298;18.996;2023-08-30T05:06:27;96881.02;;;15.28;100.00
77881;BME280;67077;50.298;18.996;2023-08-30T05:08:55;96879.81;;;15.31;100.00
77881;BME280;67077;50.298;18.996;2023-08-30T05:11:23;96883.85;;;15.32;100.00
77881;BME280;67077;50.298;18.996;2023-08-30T05:13:51;96882.05;;;15.30;100.00
77881;BME280;67077;50.298;18.996;2023-08-30T05:16:19;96885.48;;;15.28;100.00
77881;BME280;67077;50.298;18.996;2023-08-30T05:18:47;96885.77;;;15.25;100.00
77881;BME280;67077;50.298;18.996;2023-08-30T05:21:15;96886.61;;;15.22;100.00
77881;BME280;67077;50.298;18.996;2023-08-30T05:23:43;96886.14;;;15.18;100.00
77881;BME280;67077;50.298;18.996;2023-08-30T05:26:12;96881.34;;;15.14;100.00
77881;BME280;67077;50.298;18.996;2023-08-30T05:28:44;96874.51;;;15.10;100.00
77881;BME280;67077;50.298;18.996;2023-08-30T05:31:12;96874.20;;;15.06;100.00
77881;BME280;67077;50.298;18.996;2023-08-30T05:33:40;96877.63;;;15.06;100.00
77881;BME280;67077;50.298;18.996;2023-08-30T05:36:07;96879.52;;;15.06;100.00
77881;BME280;67077;50.298;18.996;2023-08-30T05:38:35;96883.65;;;15.10;100.00
77881;BME280;67077;50.298;18.996;2023-08-30T05:41:03;96885.92;;;15.13;100.00
77881;BME280;67077;50.298;18.996;2023-08-30T05:43:31;96882.98;;;15.16;100.00
77881;BME280;67077;50.298;18.996;2023-08-30T05:45:59;96886.95;;;15.18;100.00
77881;BME280;67077;50.298;18.996;2023-08-30T05:48:30;96887.45;;;15.17;100.00
77881;BME280;67077;50.298;18.996;2023-08-30T05:50:58;96891.40;;;15.16;100.00
77881;BME280;67077;50.298;18.996;2023-08-30T05:53:26;96892.93;;;15.15;100.00
77881;BME280;67077;50.298;18.996;2023-08-30T05:55:54;96895.55;;;15.12;100.00
77881;BME280;67077;50.298;18.996;2023-08-30T05:58:22;96893.23;;;15.09;100.00
77881;BME280;67077;50.298;18.996;2023-08-30T06:00:50;96893.62;;;15.09;100.00
77881;BME280;67077;50.298;18.996;2023-08-30T06:03:18;96904.55;;;15.10;100.00
77881;BME280;67077;50.298;18.996;2023-08-30T06:05:45;96907.09;;;15.14;100.00
77881;BME280;67077;50.298;18.996;2023-08-30T06:08:13;96912.93;;;15.17;100.00
77881;BME280;67077;50.298;18.996;2023-08-30T06:10:41;96913.63;;;15.16;100.00
77881;BME280;67077;50.298;18.996;2023-08-30T06:13:09;96911.71;;;15.14;100.00
77881;BME280;67077;50.298;18.996;2023-08-30T06:15:37;96909.83;;;15.10;100.00
77881;BME280;67077;50.298;18.996;2023-08-30T06:18:07;96914.02;;;15.08;100.00
77881;BME280;67077;50.298;18.996;2023-08-30T06:20:35;96911.35;;;15.10;100.00
77881;BME280;67077;50.298;18.996;2023-08-30T06:23:03;96910.48;;;15.10;100.00
77881;BME280;67077;50.298;18.996;2023-08-30T06:25:31;96913.05;;;15.11;100.00
77881;BME280;67077;50.298;18.996;2023-08-30T06:28:00;96915.38;;;15.12;100.00
77881;BME280;67077;50.298;18.996;2023-08-30T06:30:30;96916.04;;;15.10;100.00
77881;BME280;67077;50.298;18.996;2023-08-30T06:32:58;96916.10;;;15.09;100.00
77881;BME280;67077;50.298;18.996;2023-08-30T06:35:26;96923.38;;;15.11;100.00
77881;BME280;67077;50.298;18.996;2023-08-30T06:37:54;96925.72;;;15.11;100.00
77881;BME280;67077;50.298;18.996;2023-08-30T06:40:23;96924.63;;;15.12;100.00
77881;BME280;67077;50.298;18.996;2023-08-30T06:42:51;96927.50;;;15.14;100.00
77881;BME280;67077;50.298;18.996;2023-08-30T06:45:21;96924.55;;;15.14;100.00
77881;BME280;67077;50.298;18.996;2023-08-30T06:47:49;96924.30;;;15.12;100.00
77881;BME280;67077;50.298;18.996;2023-08-30T06:50:17;96919.36;;;15.10;100.00
77881;BME280;67077;50.298;18.996;2023-08-30T06:52:45;96924.20;;;15.11;100.00
77881;BME280;67077;50.298;18.996;2023-08-30T06:55:13;96926.63;;;15.14;100.00
77881;BME280;67077;50.298;18.996;2023-08-30T06:57:47;96931.16;;;15.17;100.00
77881;BME280;67077;50.298;18.996;2023-08-30T07:00:15;96930.29;;;15.19;100.00
77881;BME280;67077;50.298;18.996;2023-08-30T07:02:43;96934.23;;;15.24;100.00
77881;BME280;67077;50.298;18.996;2023-08-30T07:05:13;96938.61;;;15.29;100.00
77881;BME280;67077;50.298;18.996;2023-08-30T07:07:41;96937.80;;;15.35;100.00
77881;BME280;67077;50.298;18.996;2023-08-30T07:10:09;96939.68;;;15.40;100.00
77881;BME280;67077;50.298;18.996;2023-08-30T07:12:37;96938.42;;;15.42;100.00
77881;BME280;67077;50.298;18.996;2023-08-30T07:15:05;96941.09;;;15.41;100.00
77881;BME280;67077;50.298;18.996;2023-08-30T07:17:33;96948.26;;;15.36;100.00
77881;BME280;67077;50.298;18.996;2023-08-30T07:20:01;96953.33;;;15.34;100.00
77881;BME280;67077;50.298;18.996;2023-08-30T07:22:31;96954.84;;;15.36;100.00
77881;BME280;67077;50.298;18.996;2023-08-30T07:24:59;96957.69;;;15.42;100.00
77881;BME280;67077;50.298;18.996;2023-08-30T07:27:27;96958.61;;;15.47;100.00
77881;BME280;67077;50.298;18.996;2023-08-30T07:29:56;96960.95;;;15.51;100.00
77881;BME280;67077;50.298;18.996;2023-08-30T07:32:24;96961.85;;;15.54;100.00
77881;BME280;67077;50.298;18.996;2023-08-30T07:34:52;96961.19;;;15.56;100.00
77881;BME280;67077;50.298;18.996;2023-08-30T07:37:20;96961.02;;;15.59;100.00
77881;BME280;67077;50.298;18.996;2023-08-30T07:39:48;96955.80;;;15.56;100.00
77881;BME280;67077;50.298;18.996;2023-08-30T07:42:16;96954.00;;;15.56;100.00
77881;BME280;67077;50.298;18.996;2023-08-30T07:44:44;96958.75;;;15.55;100.00
77881;BME280;67077;50.298;18.996;2023-08-30T07:47:12;96958.90;;;15.56;100.00
77881;BME280;67077;50.298;18.996;2023-08-30T07:49:41;96963.09;;;15.58;100.00
77881;BME280;67077;50.298;18.996;2023-08-30T07:52:09;96968.42;;;15.59;100.00
77881;BME280;67077;50.298;18.996;2023-08-30T07:54:39;96972.13;;;15.58;99.99
77881;BME280;67077;50.298;18.996;2023-08-30T07:57:07;96970.84;;;15.58;99.96
77881;BME280;67077;50.298;18.996;2023-08-30T07:59:36;96967.63;;;15.55;99.97
77881;BME280;67077;50.298;18.996;2023-08-30T08:02:05;96971.64;;;15.55;100.00
77881;BME280;67077;50.298;18.996;2023-08-30T08:04:36;96977.14;;;15.58;100.00
77881;BME280;67077;50.298;18.996;2023-08-30T08:07:04;96974.15;;;15.57;99.95
77881;BME280;67077;50.298;18.996;2023-08-30T08:09:32;96977.16;;;15.54;99.94
77881;BME280;67077;50.298;18.996;2023-08-30T08:12:01;96978.96;;;15.53;100.00
77881;BME280;67077;50.298;18.996;2023-08-30T08:14:29;96982.29;;;15.52;100.00
77881;BME280;67077;50.298;18.996;2023-08-30T08:16:57;96982.36;;;15.50;100.00
77881;BME280;67077;50.298;18.996;2023-08-30T08:19:25;96978.27;;;15.52;100.00
77881;BME280;67077;50.298;18.996;2023-08-30T08:21:53;96977.10;;;15.58;100.00
77881;BME280;67077;50.298;18.996;2023-08-30T08:24:22;96980.04;;;15.67;100.00
77881;BME280;67077;50.298;18.996;2023-08-30T08:26:52;96977.33;;;15.74;100.00
77881;BME280;67077;50.298;18.996;2023-08-30T08:29:20;96983.52;;;15.81;100.00
77881;BME280;67077;50.298;18.996;2023-08-30T08:31:48;96985.62;;;15.86;100.00
77881;BME280;67077;50.298;18.996;2023-08-30T08:34:16;96991.13;;;15.86;99.70
77881;BME280;67077;50.298;18.996;2023-08-30T08:36:44;96994.73;;;15.83;99.43
77881;BME280;67077;50.298;18.996;2023-08-30T08:39:13;96995.73;;;15.81;99.44
77881;BME280;67077;50.298;18.996;2023-08-30T08:41:43;96998.41;;;15.80;98.85
77881;BME280;67077;50.298;18.996;2023-08-30T08:44:12;96998.09;;;15.77;98.84
77881;BME280;67077;50.298;18.996;2023-08-30T08:46:41;96995.84;;;15.77;99.06
77881;BME280;67077;50.298;18.996;2023-08-30T08:51:38;97002.36;;;15.84;98.86
77881;BME280;67077;50.298;18.996;2023-08-30T08:54:07;97002.98;;;15.92;98.58
77881;BME280;67077;50.298;18.996;2023-08-30T08:56:37;97010.56;;;16.01;98.22
77881;BME280;67077;50.298;18.996;2023-08-30T08:59:06;97009.16;;;16.08;97.65
77881;BME280;67077;50.298;18.996;2023-08-30T09:01:36;97008.30;;;16.09;97.01
77881;BME280;67077;50.298;18.996;2023-08-30T09:04:11;97006.75;;;16.11;96.54
77881;BME280;67077;50.298;18.996;2023-08-30T09:06:39;97007.39;;;16.13;96.55
77881;BME280;67077;50.298;18.996;2023-08-30T09:09:11;97005.58;;;16.16;96.29
77881;BME280;67077;50.298;18.996;2023-08-30T09:11:39;97008.50;;;16.19;96.40
77881;BME280;67077;50.298;18.996;2023-08-30T09:14:09;97008.04;;;16.15;96.18
77881;BME280;67077;50.298;18.996;2023-08-30T09:16:37;97005.60;;;16.13;95.88
77881;BME280;67077;50.298;18.996;2023-08-30T09:19:05;97005.84;;;16.16;95.69
77881;BME280;67077;50.298;18.996;2023-08-30T09:21:33;97010.95;;;16.20;95.54
77881;BME280;67077;50.298;18.996;2023-08-30T09:24:03;97008.16;;;16.24;95.39
77881;BME280;67077;50.298;18.996;2023-08-30T09:26:32;97009.02;;;16.22;94.85
77881;BME280;67077;50.298;18.996;2023-08-30T09:29:08;97005.05;;;16.21;94.64
77881;BME280;67077;50.298;18.996;2023-08-30T09:31:37;97005.81;;;16.22;94.17
77881;BME280;67077;50.298;18.996;2023-08-30T09:34:06;97005.48;;;16.25;94.18
77881;BME280;67077;50.298;18.996;2023-08-30T09:36:37;97006.79;;;16.32;93.89
77881;BME280;67077;50.298;18.996;2023-08-30T09:39:07;97007.31;;;16.35;94.02
77881;BME280;67077;50.298;18.996;2023-08-30T09:41:49;97008.77;;;16.42;93.78
77881;BME280;67077;50.298;18.996;2023-08-30T09:44:19;97004.73;;;16.48;93.58
77881;BME280;67077;50.298;18.996;2023-08-30T09:46:53;97004.48;;;16.51;92.96
77881;BME280;67077;50.298;18.996;2023-08-30T09:49:26;97000.27;;;16.53;92.23
77881;BME280;67077;50.298;18.996;2023-08-30T09:51:54;96995.77;;;16.58;92.66
77881;BME280;67077;50.298;18.996;2023-08-30T09:54:24;97001.48;;;16.67;92.21
77881;BME280;67077;50.298;18.996;2023-08-30T09:56:52;97002.42;;;16.70;92.11
77881;BME280;67077;50.298;18.996;2023-08-30T09:59:21;97001.77;;;16.68;91.68
77881;BME280;67077;50.298;18.996;2023-08-30T10:01:50;97003.73;;;16.67;91.46
77881;BME280;67077;50.298;18.996;2023-08-30T10:04:22;97005.33;;;16.63;91.50
77881;BME280;67077;50.298;18.996;2023-08-30T10:06:51;97008.91;;;16.64;91.71
77881;BME280;67077;50.298;18.996;2023-08-30T10:09:19;97012.95;;;16.68;91.68
77881;BME280;67077;50.298;18.996;2023-08-30T10:11:49;97016.59;;;16.73;91.46
77881;BME280;67077;50.298;18.996;2023-08-30T10:14:17;97017.41;;;16.79;91.06
77881;BME280;67077;50.298;18.996;2023-08-30T10:16:47;97011.83;;;16.79;90.60
77881;BME280;67077;50.298;18.996;2023-08-30T10:19:34;97013.73;;;16.81;90.21
77881;BME280;67077;50.298;18.996;2023-08-30T10:22:05;97009.73;;;16.82;90.38
77881;BME280;67077;50.298;18.996;2023-08-30T10:24:41;97004.81;;;16.85;90.11
77881;BME280;67077;50.298;18.996;2023-08-30T10:27:11;96999.21;;;16.89;89.59
77881;BME280;67077;50.298;18.996;2023-08-30T10:29:40;96999.89;;;16.91;89.37
77881;BME280;67077;50.298;18.996;2023-08-30T10:32:10;96997.52;;;16.99;89.69
77881;BME280;67077;50.298;18.996;2023-08-30T10:34:38;96998.66;;;17.01;89.07
77881;BME280;67077;50.298;18.996;2023-08-30T10:37:07;96999.66;;;16.98;88.44
77881;BME280;67077;50.298;18.996;2023-08-30T10:39:38;96996.46;;;16.96;88.83
77881;BME280;67077;50.298;18.996;2023-08-30T10:42:13;97002.11;;;16.93;89.02
77881;BME280;67077;50.298;18.996;2023-08-30T10:45:02;97003.58;;;16.89;88.95
77881;BME280;67077;50.298;18.996;2023-08-30T10:47:34;97006.66;;;16.91;88.87
77881;BME280;67077;50.298;18.996;2023-08-30T10:50:10;97006.94;;;16.96;88.73
77881;BME280;67077;50.298;18.996;2023-08-30T10:52:39;97004.67;;;16.99;88.29
77881;BME280;67077;50.298;18.996;2023-08-30T10:55:09;97007.09;;;16.98;87.96
77881;BME280;67077;50.298;18.996;2023-08-30T10:57:42;97009.90;;;16.95;88.04
77881;BME280;67077;50.298;18.996;2023-08-30T11:02:48;97005.95;;;16.92;88.30
77881;BME280;67077;50.298;18.996;2023-08-30T11:05:24;97009.70;;;16.98;88.23
77881;BME280;67077;50.298;18.996;2023-08-30T11:07:53;97004.76;;;17.04;88.43
77881;BME280;67077;50.298;18.996;2023-08-30T11:10:23;97003.56;;;17.13;88.28
77881;BME280;67077;50.298;18.996;2023-08-30T11:12:55;97001.98;;;17.20;87.57
77881;BME280;67077;50.298;18.996;2023-08-30T11:15:28;97004.86;;;17.22;87.01
77881;BME280;67077;50.298;18.996;2023-08-30T11:18:05;97001.89;;;17.18;87.13
77881;BME280;67077;50.298;18.996;2023-08-30T11:20:34;97000.71;;;17.15;86.73
77881;BME280;67077;50.298;18.996;2023-08-30T11:23:06;96998.64;;;17.10;87.08
77881;BME280;67077;50.298;18.996;2023-08-30T11:25:34;96995.52;;;17.04;87.07
77881;BME280;67077;50.298;18.996;2023-08-30T11:28:03;96995.51;;;17.01;87.02
77881;BME280;67077;50.298;18.996;2023-08-30T11:30:31;96995.39;;;17.02;87.19
77881;BME280;67077;50.298;18.996;2023-08-30T11:33:00;96998.05;;;17.03;87.58
77881;BME280;67077;50.298;18.996;2023-08-30T11:35:29;96997.26;;;17.05;87.49
77881;BME280;67077;50.298;18.996;2023-08-30T11:37:59;96996.73;;;17.05;87.44
77881;BME280;67077;50.298;18.996;2023-08-30T11:40:28;96985.21;;;17.04;87.14
77881;BME280;67077;50.298;18.996;2023-08-30T11:42:56;96990.16;;;17.06;87.22
77881;BME280;67077;50.298;18.996;2023-08-30T11:45:24;96993.30;;;17.12;87.63
77881;BME280;67077;50.298;18.996;2023-08-30T11:47:53;96997.16;;;17.16;87.29
77881;BME280;67077;50.298;18.996;2023-08-30T11:50:22;96996.45;;;17.15;86.86
77881;BME280;67077;50.298;18.996;2023-08-30T11:52:50;96991.79;;;17.11;86.76
77881;BME280;67077;50.298;18.996;2023-08-30T11:55:21;96996.81;;;17.12;86.81
77881;BME280;67077;50.298;18.996;2023-08-30T11:57:50;96998.20;;;17.16;86.85
77881;BME280;67077;50.298;18.996;2023-08-30T12:00:19;97004.70;;;17.21;86.72
77881;BME280;67077;50.298;18.996;2023-08-30T12:02:48;97003.30;;;17.23;86.36
77881;BME280;67077;50.298;18.996;2023-08-30T12:05:16;97004.02;;;17.27;86.39
77881;BME280;67077;50.298;18.996;2023-08-30T12:07:46;97002.36;;;17.29;86.00
77881;BME280;67077;50.298;18.996;2023-08-30T12:10:17;97001.95;;;17.27;85.89
77881;BME280;67077;50.298;18.996;2023-08-30T12:12:46;97000.95;;;17.23;85.79
77881;BME280;67077;50.298;18.996;2023-08-30T12:15:15;97001.17;;;17.19;86.12
77881;BME280;67077;50.298;18.996;2023-08-30T12:17:44;96995.80;;;17.21;86.28
77881;BME280;67077;50.298;18.996;2023-08-30T12:20:19;96994.11;;;17.25;86.29
77881;BME280;67077;50.298;18.996;2023-08-30T12:22:52;96991.48;;;17.26;86.19
77881;BME280;67077;50.298;18.996;2023-08-30T12:25:41;96989.19;;;17.33;86.16
77881;BME280;67077;50.298;18.996;2023-08-30T12:28:09;96986.92;;;17.39;85.63
77881;BME280;67077;50.298;18.996;2023-08-30T12:30:37;96987.09;;;17.43;85.39
77881;BME280;67077;50.298;18.996;2023-08-30T12:33:06;96987.50;;;17.51;85.27
77881;BME280;67077;50.298;18.996;2023-08-30T12:35:34;96990.56;;;17.55;84.99
77881;BME280;67077;50.298;18.996;2023-08-30T12:38:08;96993.54;;;17.58;84.96
77881;BME280;67077;50.298;18.996;2023-08-30T12:40:39;96996.27;;;17.50;84.51
77881;BME280;67077;50.298;18.996;2023-08-30T12:43:08;96998.77;;;17.40;84.73
77881;BME280;67077;50.298;18.996;2023-08-30T12:45:40;96995.90;;;17.33;85.13
77881;BME280;67077;50.298;18.996;2023-08-30T12:48:12;96995.20;;;17.26;85.33
77881;BME280;67077;50.298;18.996;2023-08-30T12:50:46;96993.61;;;17.15;85.64
77881;BME280;67077;50.298;18.996;2023-08-30T12:53:16;96997.23;;;17.03;86.26
77881;BME280;67077;50.298;18.996;2023-08-30T12:55:46;96994.62;;;16.90;86.54
77881;BME280;67077;50.298;18.996;2023-08-30T12:58:15;97001.95;;;16.81;86.88
77881;BME280;67077;50.298;18.996;2023-08-30T13:00:43;97006.27;;;16.73;86.96
77881;BME280;67077;50.298;18.996;2023-08-30T13:03:12;97006.24;;;16.66;87.22